Details From OMSJ - Sharjah Intl
To OIZC - Chah Bahar
Flight Number -
Tags Routegen Generated
Created
Modified
Stats Distance 263 nm / 487 km
Max Altitude 2,100 ft / 640 m
Waypoints 8
Social Downloads 0
Likes 0
Share VATSIM

Download

Looking for another format? Having issues loading an existing format? Contact us
Advertisement - Login to hide

Notes

Departing runway 12 OMSJ. Arriving runway 9 OIZC.

Route

OMSJ +25.28_+055.60 +25.27_+055.66 +25.28_+055.73 +25.34_+057.13 +25.40_+058.54 +25.45_+060.29 OIZC

ID Type Via Altitude Latitude Longitude Leg Dist Tot Dist Heading (true) Name
O OMSJ APT - 0 ft / 0 m 25.31883˚ 55.53419˚ - 0 nm - -
+25.28_+055.60 LATLON - 2,100 ft / 640 m 25.27997˚ 55.60171˚ 4 nm 4 nm 122° / 122° -
+25.27_+055.66 LATLON - 2,100 ft / 640 m 25.26746˚ 55.66422˚ 3 nm 7 nm 102° / 102° -
+25.28_+055.73 LATLON - 2,100 ft / 640 m 25.27503˚ 55.72769˚ 3 nm 11 nm 82° / 82° -
+25.34_+057.13 LATLON - 2,100 ft / 640 m 25.34234˚ 57.13269˚ 76 nm 87 nm 87° / 87° -
+25.40_+058.54 LATLON - 2,100 ft / 640 m 25.39701˚ 58.54078˚ 76 nm 164 nm 87° / 88° -
+25.45_+060.29 LATLON - 1,550 ft / 472 m 25.44682˚ 60.28508˚ 94 nm 258 nm 88° / 89° -
O OIZC APT - 0 ft / 0 m 25.44566˚ 60.36521˚ 4 nm 263 nm 91° / 91° -

Altitude Profile

Advertisement - Login to hide

Weather


0- 5 10 15 20 25 30 35+ Temperature / ° C

Clouds and Precipitation
Forecast for 2017-12-11 18:00 UTC. Updated a few seconds ago

Ground ~20,000 ft ~40,000 ft Winds

OMSJ

Details ICAO OMSJ (SHJ)
Name SHARJAH INTL
Region United Arab Emirates
Timezone Asia/Dubai (UTC+4.0)
Stats Elevation 111 ft / 34 m (AMSL)
Location 25.328587° 55.517218°
Runways 1
Magnetic Variation 2.044° E

METAR

OMSJ 111700Z 24007KT CAVOK 23/14 Q1019

Decode

TAF

TAF OMSJ 111100Z 1112/1218 28010KT 9999 FEW035 BECMG 1116/1118 20005KT PROB30 1200/1204 4000 HZ BECMG 1204/1206 28013KT BECMG 1215/1217 11005KT

Decode

Departure Runways

ID Width Length Bearing (true) Bearing (mag) Surface Threshold Offset Overrun Length
12 148 ft / 45 m 13,266 ft / 4,043 m 122.45° 120.41° Asphalt 689 ft / 210 m 488 ft / 149 m
30 148 ft / 45 m 13,266 ft / 4,043 m 302.47° 300.43° Asphalt 984 ft / 300 m 488 ft / 149 m

OIZC

Details ICAO OIZC (ZBR)
Name CHAH BAHAR
Region Iran
Timezone Asia/Tehran (UTC+3.5)
Stats Elevation 43 ft / 13 m (AMSL)
Location 25.443349° 60.382115°
Runways 2
Magnetic Variation 1.618° E

METAR

Not found

TAF

TAF OIZC 111100Z 1112/1218 24004MPS 7000 NSC TEMPO 1112/1118 32006MPS

Decode

Destination Runways

ID Width Length Bearing (true) Bearing (mag) Surface Threshold Offset Overrun Length
09L 150 ft / 46 m 12,496 ft / 3,809 m 90.91° 89.29° Asphalt 0 ft / 0 m 1,181 ft / 360 m
09R 150 ft / 46 m 9,829 ft / 2,996 m 90.93° 89.31° Asphalt 0 ft / 0 m 1,181 ft / 360 m
27L 150 ft / 46 m 9,829 ft / 2,996 m 270.94° 269.32° Asphalt 0 ft / 0 m 1,181 ft / 360 m
27R 150 ft / 46 m 12,496 ft / 3,809 m 270.93° 269.31° Asphalt 0 ft / 0 m 1,181 ft / 360 m